sensor_id;sensor_type;location;lat;lon;timestamp;P1;durP1;ratioP1;P2;durP2;ratioP2
1785;SDS011;890;48.158;11.540;2023-03-14T00:00:31;488.63;;;459.50;;
1785;SDS011;890;48.158;11.540;2023-03-14T00:02:56;618.27;;;579.80;;
1785;SDS011;890;48.158;11.540;2023-03-14T00:05:22;610.93;;;574.53;;
1785;SDS011;890;48.158;11.540;2023-03-14T00:07:48;581.27;;;548.83;;
1785;SDS011;890;48.158;11.540;2023-03-14T00:10:14;617.77;;;581.97;;
1785;SDS011;890;48.158;11.540;2023-03-14T00:12:40;511.23;;;481.80;;
1785;SDS011;890;48.158;11.540;2023-03-14T00:15:07;489.57;;;462.30;;
1785;SDS011;890;48.158;11.540;2023-03-14T00:17:34;449.40;;;424.40;;
1785;SDS011;890;48.158;11.540;2023-03-14T00:20:00;429.60;;;407.00;;
1785;SDS011;890;48.158;11.540;2023-03-14T00:22:33;408.73;;;385.80;;
1785;SDS011;890;48.158;11.540;2023-03-14T00:25:05;426.27;;;402.47;;
1785;SDS011;890;48.158;11.540;2023-03-14T00:27:33;427.47;;;403.13;;
1785;SDS011;890;48.158;11.540;2023-03-14T00:29:59;376.23;;;355.17;;
1785;SDS011;890;48.158;11.540;2023-03-14T00:32:24;266.40;;;250.70;;
1785;SDS011;890;48.158;11.540;2023-03-14T00:34:50;313.27;;;295.43;;
1785;SDS011;890;48.158;11.540;2023-03-14T00:37:16;249.73;;;234.73;;
1785;SDS011;890;48.158;11.540;2023-03-14T00:39:41;308.03;;;290.07;;
1785;SDS011;890;48.158;11.540;2023-03-14T00:42:07;222.67;;;208.97;;
1785;SDS011;890;48.158;11.540;2023-03-14T00:44:33;197.23;;;184.83;;
1785;SDS011;890;48.158;11.540;2023-03-14T00:46:58;200.43;;;188.00;;
1785;SDS011;890;48.158;11.540;2023-03-14T00:49:24;158.30;;;147.87;;
1785;SDS011;890;48.158;11.540;2023-03-14T00:51:50;159.07;;;148.27;;
1785;SDS011;890;48.158;11.540;2023-03-14T00:54:16;221.83;;;208.40;;
1785;SDS011;890;48.158;11.540;2023-03-14T00:56:42;233.27;;;219.83;;
1785;SDS011;890;48.158;11.540;2023-03-14T00:59:08;209.37;;;196.07;;
1785;SDS011;890;48.158;11.540;2023-03-14T01:01:33;214.60;;;201.63;;
1785;SDS011;890;48.158;11.540;2023-03-14T01:03:59;386.73;;;366.60;;
1785;SDS011;890;48.158;11.540;2023-03-14T01:06:26;280.20;;;264.83;;
1785;SDS011;890;48.158;11.540;2023-03-14T01:08:52;175.17;;;163.90;;
1785;SDS011;890;48.158;11.540;2023-03-14T01:11:20;117.23;;;108.10;;
1785;SDS011;890;48.158;11.540;2023-03-14T01:13:51;373.13;;;349.30;;
1785;SDS011;890;48.158;11.540;2023-03-14T01:16:17;544.07;;;509.20;;
1785;SDS011;890;48.158;11.540;2023-03-14T01:18:44;621.60;;;580.67;;
1785;SDS011;890;48.158;11.540;2023-03-14T01:21:15;666.90;;;624.33;;
1785;SDS011;890;48.158;11.540;2023-03-14T01:23:53;1161.20;;;999.90;;
1785;SDS011;890;48.158;11.540;2023-03-14T01:26:21;1.67;;;1.00;;
1785;SDS011;890;48.158;11.540;2023-03-14T01:28:48;1.93;;;0.70;;
1785;SDS011;890;48.158;11.540;2023-03-14T01:31:15;1.53;;;0.70;;
1785;SDS011;890;48.158;11.540;2023-03-14T01:33:42;0.90;;;0.60;;
1785;SDS011;890;48.158;11.540;2023-03-14T01:36:08;1.23;;;0.90;;
1785;SDS011;890;48.158;11.540;2023-03-14T01:38:35;10.40;;;0.90;;
1785;SDS011;890;48.158;11.540;2023-03-14T01:41:02;1.10;;;0.80;;
1785;SDS011;890;48.158;11.540;2023-03-14T01:43:28;1.00;;;0.70;;
1785;SDS011;890;48.158;11.540;2023-03-14T01:48:35;1.43;;;1.00;;
1785;SDS011;890;48.158;11.540;2023-03-14T01:51:05;0.90;;;0.60;;
1785;SDS011;890;48.158;11.540;2023-03-14T01:53:34;1.03;;;0.63;;
1785;SDS011;890;48.158;11.540;2023-03-14T01:56:01;0.80;;;0.63;;
1785;SDS011;890;48.158;11.540;2023-03-14T01:58:28;0.60;;;0.50;;
1785;SDS011;890;48.158;11.540;2023-03-14T02:00:57;0.80;;;0.60;;
1785;SDS011;890;48.158;11.540;2023-03-14T02:03:24;1.23;;;1.13;;
1785;SDS011;890;48.158;11.540;2023-03-14T02:05:51;0.70;;;0.60;;
1785;SDS011;890;48.158;11.540;2023-03-14T02:08:21;1.33;;;0.57;;
1785;SDS011;890;48.158;11.540;2023-03-14T02:10:48;1.10;;;0.60;;
1785;SDS011;890;48.158;11.540;2023-03-14T02:13:15;1.10;;;0.70;;
1785;SDS011;890;48.158;11.540;2023-03-14T02:15:42;0.70;;;0.60;;
1785;SDS011;890;48.158;11.540;2023-03-14T02:18:08;1.13;;;0.60;;
1785;SDS011;890;48.158;11.540;2023-03-14T02:20:36;0.70;;;0.50;;
1785;SDS011;890;48.158;11.540;2023-03-14T02:23:13;2.30;;;0.50;;
1785;SDS011;890;48.158;11.540;2023-03-14T02:25:43;1.53;;;0.60;;
1785;SDS011;890;48.158;11.540;2023-03-14T02:28:16;0.80;;;0.63;;
1785;SDS011;890;48.158;11.540;2023-03-14T02:30:42;0.63;;;0.47;;
1785;SDS011;890;48.158;11.540;2023-03-14T02:33:09;0.87;;;0.53;;
1785;SDS011;890;48.158;11.540;2023-03-14T02:35:40;0.80;;;0.60;;
1785;SDS011;890;48.158;11.540;2023-03-14T02:38:10;1.27;;;0.70;;
1785;SDS011;890;48.158;11.540;2023-03-14T02:40:40;0.60;;;0.50;;
1785;SDS011;890;48.158;11.540;2023-03-14T02:43:05;0.63;;;0.60;;
1785;SDS011;890;48.158;11.540;2023-03-14T02:45:33;0.60;;;0.50;;
1785;SDS011;890;48.158;11.540;2023-03-14T02:48:06;1.13;;;0.60;;
1785;SDS011;890;48.158;11.540;2023-03-14T02:50:35;1.57;;;0.60;;
1785;SDS011;890;48.158;11.540;2023-03-14T02:53:01;0.60;;;0.50;;
1785;SDS011;890;48.158;11.540;2023-03-14T02:55:27;1.33;;;0.60;;
1785;SDS011;890;48.158;11.540;2023-03-14T02:57:52;1.37;;;0.60;;
1785;SDS011;890;48.158;11.540;2023-03-14T03:00:18;0.90;;;0.53;;
1785;SDS011;890;48.158;11.540;2023-03-14T03:02:45;0.60;;;0.50;;
1785;SDS011;890;48.158;11.540;2023-03-14T03:05:11;0.93;;;0.60;;
1785;SDS011;890;48.158;11.540;2023-03-14T03:07:36;0.60;;;0.50;;
1785;SDS011;890;48.158;11.540;2023-03-14T03:10:02;0.70;;;0.67;;
1785;SDS011;890;48.158;11.540;2023-03-14T03:12:29;0.87;;;0.60;;
1785;SDS011;890;48.158;11.540;2023-03-14T03:14:54;0.70;;;0.50;;
1785;SDS011;890;48.158;11.540;2023-03-14T03:17:20;1.63;;;0.60;;
1785;SDS011;890;48.158;11.540;2023-03-14T03:19:45;0.67;;;0.40;;
1785;SDS011;890;48.158;11.540;2023-03-14T03:22:11;1.30;;;0.60;;
1785;SDS011;890;48.158;11.540;2023-03-14T03:24:37;0.70;;;0.60;;
1785;SDS011;890;48.158;11.540;2023-03-14T03:27:02;1.00;;;0.70;;
1785;SDS011;890;48.158;11.540;2023-03-14T03:29:28;1.37;;;0.50;;
1785;SDS011;890;48.158;11.540;2023-03-14T03:31:53;0.80;;;0.63;;
1785;SDS011;890;48.158;11.540;2023-03-14T03:34:19;1.50;;;0.90;;
1785;SDS011;890;48.158;11.540;2023-03-14T03:36:44;0.60;;;0.50;;
1785;SDS011;890;48.158;11.540;2023-03-14T03:39:10;0.50;;;0.40;;
1785;SDS011;890;48.158;11.540;2023-03-14T03:41:35;1.67;;;0.60;;
1785;SDS011;890;48.158;11.540;2023-03-14T03:44:01;1.07;;;0.50;;
1785;SDS011;890;48.158;11.540;2023-03-14T03:46:27;0.50;;;0.40;;
1785;SDS011;890;48.158;11.540;2023-03-14T03:48:56;0.67;;;0.50;;
1785;SDS011;890;48.158;11.540;2023-03-14T03:51:23;0.50;;;0.40;;
1785;SDS011;890;48.158;11.540;2023-03-14T03:53:49;0.70;;;0.40;;
1785;SDS011;890;48.158;11.540;2023-03-14T03:56:14;0.60;;;0.50;;
1785;SDS011;890;48.158;11.540;2023-03-14T03:58:40;1.47;;;0.60;;
1785;SDS011;890;48.158;11.540;2023-03-14T04:01:07;0.50;;;0.33;;
1785;SDS011;890;48.158;11.540;2023-03-14T04:03:33;1.13;;;0.40;;
1785;SDS011;890;48.158;11.540;2023-03-14T04:08:29;0.70;;;0.40;;
1785;SDS011;890;48.158;11.540;2023-03-14T04:10:58;0.50;;;0.40;;
1785;SDS011;890;48.158;11.540;2023-03-14T04:13:25;0.70;;;0.50;;
1785;SDS011;890;48.158;11.540;2023-03-14T04:15:52;0.60;;;0.40;;
1785;SDS011;890;48.158;11.540;2023-03-14T04:20:34;0.90;;;0.47;;
1785;SDS011;890;48.158;11.540;2023-03-14T04:22:59;1.37;;;0.40;;
1785;SDS011;890;48.158;11.540;2023-03-14T04:25:25;0.70;;;0.40;;
1785;SDS011;890;48.158;11.540;2023-03-14T04:27:51;0.80;;;0.50;;
1785;SDS011;890;48.158;11.540;2023-03-14T04:30:16;3.30;;;0.60;;
1785;SDS011;890;48.158;11.540;2023-03-14T04:32:42;1.10;;;0.43;;
1785;SDS011;890;48.158;11.540;2023-03-14T04:35:07;0.80;;;0.50;;
1785;SDS011;890;48.158;11.540;2023-03-14T04:37:33;0.90;;;0.50;;
1785;SDS011;890;48.158;11.540;2023-03-14T04:39:59;0.90;;;0.50;;
1785;SDS011;890;48.158;11.540;2023-03-14T04:42:24;0.57;;;0.40;;
1785;SDS011;890;48.158;11.540;2023-03-14T04:44:50;0.73;;;0.50;;
1785;SDS011;890;48.158;11.540;2023-03-14T04:47:15;0.60;;;0.50;;
1785;SDS011;890;48.158;11.540;2023-03-14T04:49:41;1.23;;;0.53;;
1785;SDS011;890;48.158;11.540;2023-03-14T04:52:07;0.70;;;0.43;;
1785;SDS011;890;48.158;11.540;2023-03-14T04:54:32;0.80;;;0.50;;
1785;SDS011;890;48.158;11.540;2023-03-14T04:56:58;0.60;;;0.40;;
1785;SDS011;890;48.158;11.540;2023-03-14T04:59:23;0.70;;;0.50;;
1785;SDS011;890;48.158;11.540;2023-03-14T05:01:49;0.60;;;0.40;;
1785;SDS011;890;48.158;11.540;2023-03-14T05:04:15;0.60;;;0.43;;
1785;SDS011;890;48.158;11.540;2023-03-14T05:06:40;0.63;;;0.50;;
1785;SDS011;890;48.158;11.540;2023-03-14T05:09:07;0.97;;;0.60;;
1785;SDS011;890;48.158;11.540;2023-03-14T05:11:32;4.00;;;0.50;;
1785;SDS011;890;48.158;11.540;2023-03-14T05:13:58;0.77;;;0.53;;
1785;SDS011;890;48.158;11.540;2023-03-14T05:16:24;0.60;;;0.50;;
1785;SDS011;890;48.158;11.540;2023-03-14T05:18:50;0.93;;;0.63;;
1785;SDS011;890;48.158;11.540;2023-03-14T05:21:15;0.57;;;0.40;;
1785;SDS011;890;48.158;11.540;2023-03-14T05:23:41;0.70;;;0.50;;
1785;SDS011;890;48.158;11.540;2023-03-14T05:26:06;1.33;;;0.80;;
1785;SDS011;890;48.158;11.540;2023-03-14T05:28:32;0.60;;;0.57;;
1785;SDS011;890;48.158;11.540;2023-03-14T05:30:58;1.07;;;0.57;;
1785;SDS011;890;48.158;11.540;2023-03-14T05:33:23;0.60;;;0.50;;
1785;SDS011;890;48.158;11.540;2023-03-14T05:35:49;1.77;;;0.67;;
1785;SDS011;890;48.158;11.540;2023-03-14T05:38:15;0.90;;;0.70;;
1785;SDS011;890;48.158;11.540;2023-03-14T05:40:40;0.80;;;0.53;;
1785;SDS011;890;48.158;11.540;2023-03-14T05:43:06;0.73;;;0.53;;
1785;SDS011;890;48.158;11.540;2023-03-14T05:45:33;0.50;;;0.40;;
1785;SDS011;890;48.158;11.540;2023-03-14T05:48:00;1.03;;;0.60;;
1785;SDS011;890;48.158;11.540;2023-03-14T05:50:25;0.93;;;0.67;;
1785;SDS011;890;48.158;11.540;2023-03-14T05:52:51;1.07;;;0.70;;
1785;SDS011;890;48.158;11.540;2023-03-14T05:55:17;1.33;;;0.93;;
1785;SDS011;890;48.158;11.540;2023-03-14T05:57:42;0.80;;;0.70;;
1785;SDS011;890;48.158;11.540;2023-03-14T06:00:08;0.80;;;0.60;;
1785;SDS011;890;48.158;11.540;2023-03-14T06:02:34;1.03;;;0.60;;
1785;SDS011;890;48.158;11.540;2023-03-14T06:04:59;0.90;;;0.63;;
1785;SDS011;890;48.158;11.540;2023-03-14T06:07:26;1.30;;;0.70;;
1785;SDS011;890;48.158;11.540;2023-03-14T06:09:52;0.63;;;0.43;;
1785;SDS011;890;48.158;11.540;2023-03-14T06:12:17;0.60;;;0.40;;
1785;SDS011;890;48.158;11.540;2023-03-14T06:14:43;0.80;;;0.60;;
1785;SDS011;890;48.158;11.540;2023-03-14T06:17:08;0.70;;;0.67;;
1785;SDS011;890;48.158;11.540;2023-03-14T06:19:34;1.00;;;0.60;;
1785;SDS011;890;48.158;11.540;2023-03-14T06:21:59;0.77;;;0.60;;
1785;SDS011;890;48.158;11.540;2023-03-14T06:24:25;0.70;;;0.60;;
1785;SDS011;890;48.158;11.540;2023-03-14T06:26:50;1.00;;;0.70;;
1785;SDS011;890;48.158;11.540;2023-03-14T06:29:16;0.80;;;0.60;;
1785;SDS011;890;48.158;11.540;2023-03-14T06:31:41;0.60;;;0.50;;
1785;SDS011;890;48.158;11.540;2023-03-14T06:34:07;0.80;;;0.60;;
1785;SDS011;890;48.158;11.540;2023-03-14T06:36:33;0.63;;;0.50;;
1785;SDS011;890;48.158;11.540;2023-03-14T06:38:58;1.23;;;0.70;;
1785;SDS011;890;48.158;11.540;2023-03-14T06:41:24;0.90;;;0.50;;
1785;SDS011;890;48.158;11.540;2023-03-14T06:43:51;0.80;;;0.63;;
1785;SDS011;890;48.158;11.540;2023-03-14T06:46:16;1.17;;;0.87;;
1785;SDS011;890;48.158;11.540;2023-03-14T06:48:42;1.00;;;0.60;;
1785;SDS011;890;48.158;11.540;2023-03-14T06:51:08;1.40;;;0.90;;
1785;SDS011;890;48.158;11.540;2023-03-14T06:53:33;1.20;;;0.60;;
1785;SDS011;890;48.158;11.540;2023-03-14T06:55:59;0.80;;;0.50;;
1785;SDS011;890;48.158;11.540;2023-03-14T06:58:25;1.83;;;0.80;;
1785;SDS011;890;48.158;11.540;2023-03-14T07:00:51;1.10;;;0.80;;
1785;SDS011;890;48.158;11.540;2023-03-14T07:03:17;2.10;;;1.53;;
1785;SDS011;890;48.158;11.540;2023-03-14T07:05:43;1.27;;;0.70;;
1785;SDS011;890;48.158;11.540;2023-03-14T07:08:09;2.43;;;0.90;;
1785;SDS011;890;48.158;11.540;2023-03-14T07:10:34;1.93;;;0.77;;
1785;SDS011;890;48.158;11.540;2023-03-14T07:13:00;2.50;;;0.83;;
1785;SDS011;890;48.158;11.540;2023-03-14T07:15:25;1.33;;;1.00;;
1785;SDS011;890;48.158;11.540;2023-03-14T07:17:51;5.33;;;1.60;;
1785;SDS011;890;48.158;11.540;2023-03-14T07:20:17;2.20;;;0.70;;
1785;SDS011;890;48.158;11.540;2023-03-14T07:22:42;3.90;;;1.20;;
1785;SDS011;890;48.158;11.540;2023-03-14T07:25:08;4.40;;;1.03;;
1785;SDS011;890;48.158;11.540;2023-03-14T07:27:36;3.20;;;1.20;;
1785;SDS011;890;48.158;11.540;2023-03-14T07:30:03;2.90;;;1.10;;
1785;SDS011;890;48.158;11.540;2023-03-14T07:32:29;10.90;;;1.03;;
1785;SDS011;890;48.158;11.540;2023-03-14T07:34:54;5.70;;;1.83;;
1785;SDS011;890;48.158;11.540;2023-03-14T07:37:20;4.60;;;1.13;;
1785;SDS011;890;48.158;11.540;2023-03-14T07:39:45;5.67;;;1.10;;
1785;SDS011;890;48.158;11.540;2023-03-14T07:42:11;4.67;;;1.17;;
1785;SDS011;890;48.158;11.540;2023-03-14T07:44:36;6.40;;;1.67;;
1785;SDS011;890;48.158;11.540;2023-03-14T07:47:02;3.23;;;2.10;;
1785;SDS011;890;48.158;11.540;2023-03-14T07:49:28;4.43;;;1.27;;
1785;SDS011;890;48.158;11.540;2023-03-14T07:51:53;4.00;;;1.13;;
1785;SDS011;890;48.158;11.540;2023-03-14T07:54:19;1.93;;;0.77;;
1785;SDS011;890;48.158;11.540;2023-03-14T07:56:45;1.70;;;0.70;;
1785;SDS011;890;48.158;11.540;2023-03-14T07:59:10;1.03;;;0.60;;
1785;SDS011;890;48.158;11.540;2023-03-14T08:01:37;1.23;;;0.60;;
1785;SDS011;890;48.158;11.540;2023-03-14T08:04:02;0.90;;;0.60;;
1785;SDS011;890;48.158;11.540;2023-03-14T08:06:29;1.00;;;0.60;;
1785;SDS011;890;48.158;11.540;2023-03-14T08:08:54;3.60;;;0.90;;
1785;SDS011;890;48.158;11.540;2023-03-14T08:11:20;3.33;;;0.60;;
1785;SDS011;890;48.158;11.540;2023-03-14T08:13:46;2.60;;;0.70;;
1785;SDS011;890;48.158;11.540;2023-03-14T08:16:15;4.03;;;0.77;;
1785;SDS011;890;48.158;11.540;2023-03-14T08:18:44;1.13;;;0.83;;
1785;SDS011;890;48.158;11.540;2023-03-14T08:21:10;0.90;;;0.80;;
1785;SDS011;890;48.158;11.540;2023-03-14T08:23:36;3.23;;;0.90;;
1785;SDS011;890;48.158;11.540;2023-03-14T08:26:02;1.10;;;0.57;;
1785;SDS011;890;48.158;11.540;2023-03-14T08:28:28;1.63;;;0.80;;
1785;SDS011;890;48.158;11.540;2023-03-14T08:30:56;1.60;;;0.57;;
1785;SDS011;890;48.158;11.540;2023-03-14T08:33:22;1.57;;;0.67;;
1785;SDS011;890;48.158;11.540;2023-03-14T08:35:51;1.00;;;0.60;;
1785;SDS011;890;48.158;11.540;2023-03-14T08:38:21;0.97;;;0.60;;
1785;SDS011;890;48.158;11.540;2023-03-14T08:40:47;0.90;;;0.60;;
1785;SDS011;890;48.158;11.540;2023-03-14T08:43:12;2.03;;;0.80;;
1785;SDS011;890;48.158;11.540;2023-03-14T08:45:38;1.93;;;0.90;;
1785;SDS011;890;48.158;11.540;2023-03-14T08:48:03;4.30;;;0.90;;
1785;SDS011;890;48.158;11.540;2023-03-14T08:50:29;0.80;;;0.50;;
1785;SDS011;890;48.158;11.540;2023-03-14T08:52:55;3.90;;;0.70;;
1785;SDS011;890;48.158;11.540;2023-03-14T08:55:24;1.10;;;0.80;;
1785;SDS011;890;48.158;11.540;2023-03-14T08:57:52;0.90;;;0.60;;
1785;SDS011;890;48.158;11.540;2023-03-14T09:00:18;1.30;;;0.63;;
1785;SDS011;890;48.158;11.540;2023-03-14T09:02:44;2.27;;;1.03;;
1785;SDS011;890;48.158;11.540;2023-03-14T09:05:10;1.00;;;0.70;;
1785;SDS011;890;48.158;11.540;2023-03-14T09:07:36;2.27;;;1.17;;
1785;SDS011;890;48.158;11.540;2023-03-14T09:10:03;1.20;;;0.60;;
1785;SDS011;890;48.158;11.540;2023-03-14T09:12:29;1.80;;;1.10;;
1785;SDS011;890;48.158;11.540;2023-03-14T09:14:55;0.93;;;0.57;;
1785;SDS011;890;48.158;11.540;2023-03-14T09:17:20;3.23;;;0.80;;
1785;SDS011;890;48.158;11.540;2023-03-14T09:19:46;1.27;;;0.67;;
1785;SDS011;890;48.158;11.540;2023-03-14T09:22:12;1.43;;;1.00;;
1785;SDS011;890;48.158;11.540;2023-03-14T09:24:37;3.53;;;1.20;;
1785;SDS011;890;48.158;11.540;2023-03-14T09:27:04;1.40;;;0.87;;
1785;SDS011;890;48.158;11.540;2023-03-14T09:29:29;2.10;;;0.80;;
1785;SDS011;890;48.158;11.540;2023-03-14T09:31:55;3.67;;;0.73;;
1785;SDS011;890;48.158;11.540;2023-03-14T09:34:22;2.27;;;0.80;;
1785;SDS011;890;48.158;11.540;2023-03-14T09:36:48;4.57;;;0.80;;
1785;SDS011;890;48.158;11.540;2023-03-14T09:39:14;3.13;;;1.40;;
1785;SDS011;890;48.158;11.540;2023-03-14T09:41:41;5.40;;;1.50;;
1785;SDS011;890;48.158;11.540;2023-03-14T09:46:35;4.10;;;1.20;;
1785;SDS011;890;48.158;11.540;2023-03-14T09:49:02;4.73;;;1.60;;
1785;SDS011;890;48.158;11.540;2023-03-14T09:51:36;3.73;;;0.90;;
1785;SDS011;890;48.158;11.540;2023-03-14T09:54:02;6.87;;;1.20;;
1785;SDS011;890;48.158;11.540;2023-03-14T09:56:31;4.83;;;1.60;;
1785;SDS011;890;48.158;11.540;2023-03-14T09:58:59;1.90;;;0.93;;
1785;SDS011;890;48.158;11.540;2023-03-14T10:01:28;4.53;;;1.00;;
1785;SDS011;890;48.158;11.540;2023-03-14T10:03:57;2.80;;;0.90;;
1785;SDS011;890;48.158;11.540;2023-03-14T10:06:27;6.07;;;1.10;;
1785;SDS011;890;48.158;11.540;2023-03-14T10:08:55;1.13;;;0.50;;
1785;SDS011;890;48.158;11.540;2023-03-14T10:11:22;8.10;;;1.50;;
1785;SDS011;890;48.158;11.540;2023-03-14T10:16:32;3.87;;;1.50;;
1785;SDS011;890;48.158;11.540;2023-03-14T10:19:07;2.17;;;1.10;;
1785;SDS011;890;48.158;11.540;2023-03-14T10:21:40;1.50;;;0.90;;
1785;SDS011;890;48.158;11.540;2023-03-14T10:24:49;1.27;;;0.83;;
1785;SDS011;890;48.158;11.540;2023-03-14T10:26:59;3.37;;;0.93;;
1785;SDS011;890;48.158;11.540;2023-03-14T10:29:27;0.60;;;0.40;;
1785;SDS011;890;48.158;11.540;2023-03-14T10:31:56;2.83;;;1.53;;
1785;SDS011;890;48.158;11.540;2023-03-14T10:34:34;1.37;;;1.10;;
1785;SDS011;890;48.158;11.540;2023-03-14T10:37:34;1.00;;;0.77;;
1785;SDS011;890;48.158;11.540;2023-03-14T10:39:53;1.90;;;0.60;;
1785;SDS011;890;48.158;11.540;2023-03-14T10:44:53;0.93;;;0.57;;
1785;SDS011;890;48.158;11.540;2023-03-14T10:47:22;0.70;;;0.50;;
1785;SDS011;890;48.158;11.540;2023-03-14T10:49:49;2.10;;;1.00;;
1785;SDS011;890;48.158;11.540;2023-03-14T10:52:25;2.77;;;0.60;;
1785;SDS011;890;48.158;11.540;2023-03-14T10:54:54;1.23;;;0.80;;
1785;SDS011;890;48.158;11.540;2023-03-14T10:57:23;1.33;;;0.83;;
1785;SDS011;890;48.158;11.540;2023-03-14T10:59:50;0.90;;;0.50;;
1785;SDS011;890;48.158;11.540;2023-03-14T11:02:39;2.10;;;1.00;;
1785;SDS011;890;48.158;11.540;2023-03-14T11:06:10;2.40;;;0.60;;
1785;SDS011;890;48.158;11.540;2023-03-14T11:08:23;2.90;;;0.80;;
1785;SDS011;890;48.158;11.540;2023-03-14T11:24:22;1.40;;;0.77;;
1785;SDS011;890;48.158;11.540;2023-03-14T11:32:13;0.90;;;0.60;;
1785;SDS011;890;48.158;11.540;2023-03-14T11:34:50;0.60;;;0.50;;
1785;SDS011;890;48.158;11.540;2023-03-14T11:37:29;0.80;;;0.57;;
1785;SDS011;890;48.158;11.540;2023-03-14T11:40:08;0.60;;;0.50;;
1785;SDS011;890;48.158;11.540;2023-03-14T11:42:51;1.03;;;0.73;;
1785;SDS011;890;48.158;11.540;2023-03-14T11:45:40;0.80;;;0.50;;
1785;SDS011;890;48.158;11.540;2023-03-14T11:51:00;1.63;;;1.03;;
1785;SDS011;890;48.158;11.540;2023-03-14T11:59:12;2.67;;;0.80;;
1785;SDS011;890;48.158;11.540;2023-03-14T12:01:54;0.93;;;0.60;;
1785;SDS011;890;48.158;11.540;2023-03-14T12:04:31;1.10;;;0.80;;
1785;SDS011;890;48.158;11.540;2023-03-14T12:07:01;0.70;;;0.60;;
1785;SDS011;890;48.158;11.540;2023-03-14T12:09:32;0.87;;;0.60;;
1785;SDS011;890;48.158;11.540;2023-03-14T12:12:00;0.83;;;0.50;;
1785;SDS011;890;48.158;11.540;2023-03-14T12:14:32;0.63;;;0.50;;
1785;SDS011;890;48.158;11.540;2023-03-14T12:19:38;0.90;;;0.60;;
1785;SDS011;890;48.158;11.540;2023-03-14T12:22:07;0.70;;;0.50;;
1785;SDS011;890;48.158;11.540;2023-03-14T12:24:35;0.60;;;0.50;;
1785;SDS011;890;48.158;11.540;2023-03-14T12:27:03;2.30;;;0.50;;
1785;SDS011;890;48.158;11.540;2023-03-14T12:29:30;0.50;;;0.40;;
1785;SDS011;890;48.158;11.540;2023-03-14T12:34:48;1.67;;;0.60;;
1785;SDS011;890;48.158;11.540;2023-03-14T12:40:20;0.50;;;0.43;;
1785;SDS011;890;48.158;11.540;2023-03-14T12:43:03;1.03;;;0.53;;
1785;SDS011;890;48.158;11.540;2023-03-14T12:46:09;1.47;;;0.60;;
1785;SDS011;890;48.158;11.540;2023-03-14T12:49:25;0.90;;;0.60;;
1785;SDS011;890;48.158;11.540;2023-03-14T12:51:40;0.83;;;0.40;;
1785;SDS011;890;48.158;11.540;2023-03-14T12:54:29;1.63;;;0.50;;
1785;SDS011;890;48.158;11.540;2023-03-14T12:59:51;1.10;;;0.70;;
1785;SDS011;890;48.158;11.540;2023-03-14T13:02:37;1.27;;;0.50;;
1785;SDS011;890;48.158;11.540;2023-03-14T13:05:10;1.13;;;0.50;;
1785;SDS011;890;48.158;11.540;2023-03-14T13:10:28;0.60;;;0.50;;
1785;SDS011;890;48.158;11.540;2023-03-14T13:15:43;0.53;;;0.40;;
1785;SDS011;890;48.158;11.540;2023-03-14T13:18:11;0.60;;;0.47;;
1785;SDS011;890;48.158;11.540;2023-03-14T13:23:55;0.70;;;0.50;;
1785;SDS011;890;48.158;11.540;2023-03-14T13:26:32;1.00;;;0.87;;
1785;SDS011;890;48.158;11.540;2023-03-14T13:31:45;0.60;;;0.50;;
1785;SDS011;890;48.158;11.540;2023-03-14T13:34:12;0.80;;;0.47;;
1785;SDS011;890;48.158;11.540;2023-03-14T13:36:38;0.70;;;0.60;;
1785;SDS011;890;48.158;11.540;2023-03-14T13:39:06;0.70;;;0.50;;
1785;SDS011;890;48.158;11.540;2023-03-14T13:41:42;0.60;;;0.40;;
1785;SDS011;890;48.158;11.540;2023-03-14T13:44:18;1.27;;;0.50;;
1785;SDS011;890;48.158;11.540;2023-03-14T13:46:52;0.87;;;0.40;;
1785;SDS011;890;48.158;11.540;2023-03-14T13:49:26;0.50;;;0.40;;
1785;SDS011;890;48.158;11.540;2023-03-14T13:51:54;0.60;;;0.50;;
1785;SDS011;890;48.158;11.540;2023-03-14T13:54:20;0.70;;;0.50;;
1785;SDS011;890;48.158;11.540;2023-03-14T13:56:47;0.90;;;0.50;;
1785;SDS011;890;48.158;11.540;2023-03-14T13:59:26;1.33;;;0.60;;
1785;SDS011;890;48.158;11.540;2023-03-14T14:01:54;0.90;;;0.53;;
1785;SDS011;890;48.158;11.540;2023-03-14T14:04:22;0.70;;;0.50;;
1785;SDS011;890;48.158;11.540;2023-03-14T14:06:55;0.50;;;0.40;;
1785;SDS011;890;48.158;11.540;2023-03-14T14:09:44;1.43;;;0.40;;
1785;SDS011;890;48.158;11.540;2023-03-14T14:17:49;0.90;;;0.60;;
1785;SDS011;890;48.158;11.540;2023-03-14T14:20:22;0.70;;;0.50;;
1785;SDS011;890;48.158;11.540;2023-03-14T14:22:59;1.07;;;0.50;;
1785;SDS011;890;48.158;11.540;2023-03-14T14:25:31;1.43;;;0.60;;
1785;SDS011;890;48.158;11.540;2023-03-14T14:27:57;0.77;;;0.50;;
1785;SDS011;890;48.158;11.540;2023-03-14T14:33:19;1.13;;;0.60;;
1785;SDS011;890;48.158;11.540;2023-03-14T14:35:50;1.37;;;0.70;;
1785;SDS011;890;48.158;11.540;2023-03-14T14:38:25;0.63;;;0.40;;
1785;SDS011;890;48.158;11.540;2023-03-14T14:40:54;0.70;;;0.50;;
1785;SDS011;890;48.158;11.540;2023-03-14T14:43:27;0.80;;;0.50;;
1785;SDS011;890;48.158;11.540;2023-03-14T14:45:55;0.80;;;0.50;;
1785;SDS011;890;48.158;11.540;2023-03-14T14:48:23;0.70;;;0.43;;
1785;SDS011;890;48.158;11.540;2023-03-14T14:51:03;1.00;;;0.60;;
1785;SDS011;890;48.158;11.540;2023-03-14T14:56:07;0.80;;;0.60;;
1785;SDS011;890;48.158;11.540;2023-03-14T14:58:49;1.40;;;1.00;;
1785;SDS011;890;48.158;11.540;2023-03-14T15:01:16;0.90;;;0.60;;
1785;SDS011;890;48.158;11.540;2023-03-14T15:03:44;0.90;;;0.50;;
1785;SDS011;890;48.158;11.540;2023-03-14T15:06:12;1.00;;;0.87;;
1785;SDS011;890;48.158;11.540;2023-03-14T15:08:39;0.70;;;0.50;;
1785;SDS011;890;48.158;11.540;2023-03-14T15:11:05;0.80;;;0.60;;
1785;SDS011;890;48.158;11.540;2023-03-14T15:13:31;1.30;;;0.60;;
1785;SDS011;890;48.158;11.540;2023-03-14T15:15:56;1.10;;;0.90;;
1785;SDS011;890;48.158;11.540;2023-03-14T15:18:23;1.03;;;0.70;;
1785;SDS011;890;48.158;11.540;2023-03-14T15:20:50;0.87;;;0.60;;
1785;SDS011;890;48.158;11.540;2023-03-14T15:23:17;0.80;;;0.60;;
1785;SDS011;890;48.158;11.540;2023-03-14T15:25:44;0.60;;;0.50;;
1785;SDS011;890;48.158;11.540;2023-03-14T15:30:46;1.23;;;0.80;;
1785;SDS011;890;48.158;11.540;2023-03-14T15:33:13;0.77;;;0.70;;
1785;SDS011;890;48.158;11.540;2023-03-14T15:35:39;0.70;;;0.70;;
1785;SDS011;890;48.158;11.540;2023-03-14T15:38:08;1.90;;;1.20;;
1785;SDS011;890;48.158;11.540;2023-03-14T15:40:38;1.57;;;1.00;;
1785;SDS011;890;48.158;11.540;2023-03-14T15:43:04;1.10;;;1.00;;
1785;SDS011;890;48.158;11.540;2023-03-14T15:45:29;1.40;;;1.10;;
1785;SDS011;890;48.158;11.540;2023-03-14T15:47:55;1.10;;;1.00;;
1785;SDS011;890;48.158;11.540;2023-03-14T15:50:21;2.00;;;1.30;;
1785;SDS011;890;48.158;11.540;2023-03-14T15:52:46;1.50;;;1.37;;
1785;SDS011;890;48.158;11.540;2023-03-14T15:55:12;2.40;;;1.43;;
1785;SDS011;890;48.158;11.540;2023-03-14T15:57:39;1.77;;;1.33;;
1785;SDS011;890;48.158;11.540;2023-03-14T16:00:10;1.60;;;1.30;;
1785;SDS011;890;48.158;11.540;2023-03-14T16:02:38;4.03;;;1.10;;
1785;SDS011;890;48.158;11.540;2023-03-14T16:05:06;1.23;;;1.07;;
1785;SDS011;890;48.158;11.540;2023-03-14T16:07:36;2.83;;;1.27;;
1785;SDS011;890;48.158;11.540;2023-03-14T16:10:02;1.30;;;1.20;;
1785;SDS011;890;48.158;11.540;2023-03-14T16:12:29;1.23;;;1.13;;
1785;SDS011;890;48.158;11.540;2023-03-14T16:14:55;1.43;;;1.20;;
1785;SDS011;890;48.158;11.540;2023-03-14T16:17:21;1.43;;;1.33;;
1785;SDS011;890;48.158;11.540;2023-03-14T16:19:47;1.27;;;1.17;;
1785;SDS011;890;48.158;11.540;2023-03-14T16:22:12;1.30;;;1.00;;
1785;SDS011;890;48.158;11.540;2023-03-14T16:24:38;2.93;;;1.20;;
1785;SDS011;890;48.158;11.540;2023-03-14T16:27:04;1.27;;;1.10;;
1785;SDS011;890;48.158;11.540;2023-03-14T16:29:30;6.33;;;1.20;;
1785;SDS011;890;48.158;11.540;2023-03-14T16:31:55;2.00;;;1.10;;
1785;SDS011;890;48.158;11.540;2023-03-14T16:34:21;1.67;;;1.30;;